Black Brook, Wisconsin
Current Conditions -  °F | °C
As of 10:15 AM on Friday 24 Oct 2014 (Local Time) from KRNH Reporting Station
Scattered Clouds Scattered Clouds  
Wind Chill: 13°   Ceiling: Unl
Heat Index: 13°   Visibility: 10mi
Dew Point: 11°   Wind: 12mph
Humidity: 88%   Direction: 150°SSE
Pressure: 29.9"   Gusts: 17mph
Location:  45.2417°N, 92.2543°W
Report Text: KRNH 241515Z AUTO 15010G15KT 10SM SCT048 13/11 A2990 RMK AO2 T01250106
Loading
Personal Weather Stations






























Interactive Weather Map
Tropical Storm Tracking
New forecast layout! Learn more

10-Day Weather Forecast

Advertisements
Track Severe Weather on mobile